createdAt,value
2022-12-03T00:00:08.905Z,24.1
2022-12-03T00:02:05.815Z,23.9
2022-12-03T00:04:07.783Z,25.6
2022-12-03T00:06:09.719Z,20.2
2022-12-03T00:08:11.753Z,22.9
2022-12-03T00:10:16.883Z,22.3
2022-12-03T00:12:18.895Z,24
2022-12-03T00:14:20.891Z,22
2022-12-03T00:16:22.973Z,22.6
2022-12-03T00:18:24.914Z,23.7
2022-12-03T00:20:27.034Z,22.1
2022-12-03T00:22:28.931Z,23.4
2022-12-03T00:24:34.121Z,23.6
2022-12-03T00:26:36.072Z,23.1
2022-12-03T00:28:38.121Z,22.4
2022-12-03T00:30:40.176Z,22.9
2022-12-03T00:32:42.108Z,24
2022-12-03T00:34:44.133Z,23.9
2022-12-03T00:36:46.122Z,22
2022-12-03T00:38:51.279Z,24.4
2022-12-03T00:40:53.281Z,22.5
2022-12-03T00:42:55.318Z,23.2
2022-12-03T00:43:57.897Z,23.3
2022-12-03T00:48:01.915Z,22.4
2022-12-03T00:50:03.940Z,24.4
2022-12-03T00:52:09.115Z,23.5
2022-12-03T00:54:11.092Z,23.1
2022-12-03T00:56:13.078Z,24
2022-12-03T01:00:17.090Z,22.9
2022-12-03T01:06:26.297Z,22.8
2022-12-03T01:08:28.314Z,25.6
2022-12-03T01:10:30.303Z,22.8
2022-12-03T01:12:32.342Z,25.9
2022-12-03T01:14:34.347Z,22.3
2022-12-03T01:16:36.401Z,25.9
2022-12-03T01:18:38.346Z,25.3
2022-12-03T01:20:43.514Z,26.4
2022-12-03T01:22:45.536Z,27.1
2022-12-03T01:24:47.545Z,28.3
2022-12-03T01:26:49.526Z,26.7
2022-12-03T01:28:51.542Z,23.2
2022-12-03T01:30:53.666Z,24.9
2022-12-03T01:32:55.583Z,25
2022-12-03T01:35:00.726Z,28.6
2022-12-03T01:37:02.724Z,26.2
2022-12-03T01:39:04.730Z,25
2022-12-03T01:40:07.334Z,25.6
2022-12-03T01:42:09.353Z,26.2
2022-12-03T01:44:11.347Z,26
2022-12-03T01:46:13.408Z,25.1
2022-12-03T01:48:18.526Z,25.5
2022-12-03T01:50:20.546Z,21.8
2022-12-03T01:52:22.539Z,25.5
2022-12-03T01:54:24.559Z,24.1
2022-12-03T01:56:26.543Z,24.7
2022-12-03T01:58:28.585Z,24.7
2022-12-03T02:00:30.566Z,22
2022-12-03T02:10:43.806Z,24.4
2022-12-03T02:14:47.803Z,23.2
2022-12-03T02:16:53.000Z,28.7
2022-12-03T02:18:55.025Z,22.3
2022-12-03T02:20:57.044Z,21.2
2022-12-03T02:22:59.063Z,23.2
2022-12-03T02:27:03.100Z,24.9
2022-12-03T02:29:05.072Z,24.5
2022-12-03T02:31:10.317Z,24.2
2022-12-03T02:33:12.273Z,26.4
2022-12-03T02:35:14.258Z,22.2
2022-12-03T02:36:16.860Z,24.8
2022-12-03T02:38:18.851Z,24.1
2022-12-03T02:40:20.922Z,22
2022-12-03T02:42:22.922Z,23.4
2022-12-03T02:44:28.097Z,26.1
2022-12-03T02:46:30.113Z,21.9
2022-12-03T02:48:32.092Z,23.6
2022-12-03T02:50:34.121Z,25.8
2022-12-03T02:52:36.184Z,26.1
2022-12-03T02:54:38.144Z,22.7
2022-12-03T02:56:40.199Z,24.4
2022-12-03T02:58:45.350Z,24.6
2022-12-03T03:00:47.356Z,24.3
2022-12-03T03:02:49.382Z,25.4
2022-12-03T03:04:51.778Z,26.4
2022-12-03T03:06:53.395Z,26.2
2022-12-03T03:08:55.402Z,28.4
2022-12-03T03:10:57.432Z,26.5
2022-12-03T03:13:02.586Z,26.4
2022-12-03T03:15:04.590Z,24.8
2022-12-03T03:17:06.601Z,25.7
2022-12-03T03:19:08.646Z,23.8
2022-12-03T03:21:10.637Z,28.9
2022-12-03T03:23:12.665Z,23.9
2022-12-03T03:25:14.667Z,23.8
2022-12-03T03:27:19.820Z,25
2022-12-03T03:29:23.374Z,25.5
2022-12-03T03:31:25.450Z,28
2022-12-03T03:33:48.519Z,32.4
2022-12-03T03:37:52.508Z,28.2
2022-12-03T03:44:01.663Z,28.1
2022-12-03T03:46:03.838Z,27.4
2022-12-03T03:48:05.707Z,26.2
2022-12-03T03:50:07.749Z,33.3
2022-12-03T03:54:14.914Z,28.7
2022-12-03T03:56:16.930Z,29.4
2022-12-03T04:00:20.965Z,30.5
2022-12-03T04:02:22.992Z,28.6
2022-12-03T04:04:25.061Z,27.2
2022-12-03T04:06:26.991Z,29.9
2022-12-03T04:08:32.169Z,32.1
2022-12-03T04:10:34.177Z,31.6
2022-12-03T04:12:36.203Z,30.1
2022-12-03T04:14:38.210Z,28.2
2022-12-03T04:16:40.266Z,28.5
2022-12-03T04:18:42.252Z,27.4
2022-12-03T04:20:44.271Z,28.3
2022-12-03T04:22:49.430Z,30.5
2022-12-03T04:24:51.714Z,29.4
2022-12-03T04:26:53.455Z,28.6
2022-12-03T04:27:56.024Z,27.3
2022-12-03T04:29:58.057Z,28.3
2022-12-03T04:32:00.091Z,31.4
2022-12-03T04:42:13.294Z,27.8
2022-12-03T04:48:19.313Z,27.8
2022-12-03T04:50:24.495Z,26
2022-12-03T04:52:26.506Z,30.1
2022-12-03T04:54:28.495Z,24.8
2022-12-03T04:58:32.539Z,29.8
2022-12-03T05:00:34.552Z,26
2022-12-03T05:02:36.648Z,25
2022-12-03T05:04:41.715Z,26.4
2022-12-03T05:06:43.726Z,25.6
2022-12-03T05:08:45.737Z,25.5
2022-12-03T05:14:52.230Z,28.7
2022-12-03T05:16:53.875Z,24.7
2022-12-03T05:18:58.962Z,27.9
2022-12-03T05:21:00.966Z,24.4
2022-12-03T05:23:02.963Z,25.9
2022-12-03T05:26:07.577Z,26.2
2022-12-03T05:28:09.563Z,24.9
2022-12-03T05:30:11.604Z,25.7
2022-12-03T05:32:16.726Z,23.8
2022-12-03T05:34:18.733Z,24.3
2022-12-03T05:36:20.735Z,23.3
2022-12-03T05:38:22.774Z,27.4
2022-12-03T05:40:24.766Z,29.5
2022-12-03T05:42:26.795Z,26.4
2022-12-03T05:44:28.802Z,26
2022-12-03T05:46:34.094Z,27
2022-12-03T05:48:35.989Z,28.3
2022-12-03T05:50:38.049Z,24.8
2022-12-03T05:58:46.070Z,27.3
2022-12-03T06:02:53.447Z,24.7
2022-12-03T06:04:55.482Z,26.2
2022-12-03T06:06:57.270Z,30.6
2022-12-03T06:08:59.265Z,26.2
2022-12-03T06:13:03.315Z,32.1
2022-12-03T06:15:08.467Z,29
2022-12-03T06:17:10.471Z,27.8
2022-12-03T06:19:12.497Z,25.6
2022-12-03T06:20:15.112Z,26.5
2022-12-03T06:22:17.083Z,30.1
2022-12-03T06:24:19.105Z,37.5
2022-12-03T06:26:21.120Z,38.4
2022-12-03T06:28:26.282Z,29.3
2022-12-03T06:30:28.299Z,34.1
2022-12-03T06:32:30.290Z,38
2022-12-03T06:34:32.303Z,29.5
2022-12-03T06:36:34.333Z,36.9
2022-12-03T06:38:36.357Z,32
2022-12-03T06:40:38.351Z,33.4
2022-12-03T06:42:43.502Z,30.7
2022-12-03T06:44:45.507Z,30.4
2022-12-03T06:46:47.584Z,34.4
2022-12-03T06:48:49.559Z,28
2022-12-03T06:50:51.581Z,28.1
2022-12-03T06:52:53.627Z,30.9
2022-12-03T06:54:56.008Z,27.1
2022-12-03T06:57:00.738Z,30.4
2022-12-03T06:59:02.755Z,26.1
2022-12-03T07:01:04.772Z,27.6
2022-12-03T07:03:06.816Z,26.9
2022-12-03T07:05:08.784Z,29.4
2022-12-03T07:07:10.781Z,30.2
2022-12-03T07:09:12.818Z,31
2022-12-03T07:13:19.971Z,25.1
2022-12-03T07:15:21.974Z,26.8
2022-12-03T07:17:45.042Z,30.2
2022-12-03T07:19:47.045Z,31
2022-12-03T07:21:49.045Z,30.5
2022-12-03T07:23:54.214Z,28.1
2022-12-03T07:25:56.256Z,30.2
2022-12-03T07:27:58.278Z,29.6
2022-12-03T07:30:00.254Z,28.4
2022-12-03T07:32:02.311Z,32.5
2022-12-03T07:34:04.259Z,30.3
2022-12-03T07:36:06.269Z,29.7
2022-12-03T07:38:11.431Z,27.3
2022-12-03T07:40:13.431Z,28.3
2022-12-03T07:42:15.478Z,29.4
2022-12-03T07:44:17.445Z,28.5
2022-12-03T07:46:19.474Z,29
2022-12-03T07:48:21.523Z,25.1
2022-12-03T07:50:23.485Z,26.8
2022-12-03T07:52:28.615Z,30.3
2022-12-03T07:54:30.633Z,29.1
2022-12-03T07:56:32.649Z,28
2022-12-03T07:58:34.659Z,27.8
2022-12-03T08:00:36.670Z,30.4
2022-12-03T08:02:38.694Z,30.1
2022-12-03T08:04:40.661Z,26.2
2022-12-03T08:06:45.818Z,34.1
2022-12-03T08:08:47.813Z,29.7
2022-12-03T08:10:49.834Z,31.8
2022-12-03T08:11:52.396Z,30.8
2022-12-03T08:15:56.473Z,33.4
2022-12-03T08:17:58.402Z,28
2022-12-03T08:20:03.565Z,30.7
2022-12-03T08:22:05.546Z,31.6
2022-12-03T08:24:07.539Z,28.6
2022-12-03T08:26:09.552Z,28.3
2022-12-03T08:28:11.530Z,28.8
2022-12-03T08:30:13.550Z,28.4
2022-12-03T08:32:15.659Z,29.1
2022-12-03T08:34:20.687Z,28.8
2022-12-03T08:36:22.729Z,29.9
2022-12-03T08:38:24.708Z,28.5
2022-12-03T08:40:26.689Z,26.3
2022-12-03T08:42:28.699Z,28.3
2022-12-03T08:44:30.697Z,26.6
2022-12-03T08:46:32.697Z,26.2
2022-12-03T08:48:40.785Z,25
2022-12-03T08:50:40.804Z,26.3
2022-12-03T08:52:42.792Z,26.6
2022-12-03T08:54:44.794Z,24.1
2022-12-03T08:56:46.816Z,24.7
2022-12-03T08:58:48.997Z,29.1
2022-12-03T09:00:50.879Z,26.6
2022-12-03T09:02:55.937Z,21.6
2022-12-03T09:04:57.941Z,25.1
2022-12-03T09:06:59.945Z,21.6
2022-12-03T09:08:02.594Z,24.1
2022-12-03T09:10:04.532Z,22.4
2022-12-03T09:12:06.518Z,25.1
2022-12-03T09:14:11.434Z,25
2022-12-03T09:16:13.740Z,25.1
2022-12-03T09:18:15.695Z,24.5
2022-12-03T09:20:19.202Z,22.9
2022-12-03T09:24:23.166Z,22.6
2022-12-03T09:26:25.163Z,24.3
2022-12-03T09:30:32.297Z,23.5
2022-12-03T09:32:34.338Z,24.4
2022-12-03T09:34:36.282Z,24.1
2022-12-03T09:36:38.262Z,27
2022-12-03T09:38:45.999Z,25
2022-12-03T09:40:42.308Z,25.3
2022-12-03T09:42:44.279Z,26.7
2022-12-03T09:44:49.441Z,27.1
2022-12-03T09:46:51.436Z,23.3
2022-12-03T09:48:53.415Z,25.6
2022-12-03T09:50:55.403Z,21.8
2022-12-03T09:52:57.380Z,22.7
2022-12-03T09:54:59.407Z,21.8
2022-12-03T09:59:06.532Z,24.6
2022-12-03T10:03:10.516Z,26.4
2022-12-03T10:04:13.231Z,24.3
2022-12-03T10:06:15.108Z,23.2
2022-12-03T10:08:17.104Z,24.7
2022-12-03T10:10:19.163Z,26.5
2022-12-03T10:14:26.224Z,25.1
2022-12-03T10:24:36.188Z,22.2
2022-12-03T10:26:41.334Z,26.8
2022-12-03T10:30:45.362Z,25.4
2022-12-03T10:32:47.324Z,23.8
2022-12-03T10:43:00.503Z,19.7
2022-12-03T10:45:02.453Z,20.4
2022-12-03T10:49:06.447Z,19.3
2022-12-03T10:51:08.435Z,22.7
2022-12-03T10:55:15.553Z,19.4
2022-12-03T10:59:19.541Z,18.7
2022-12-03T11:05:45.530Z,21
2022-12-03T11:07:50.816Z,22.4
2022-12-03T11:09:52.653Z,25.9
2022-12-03T11:11:54.678Z,27.6
2022-12-03T11:13:56.662Z,24.2
2022-12-03T11:18:00.645Z,22.1
2022-12-03T11:20:02.676Z,19.2
2022-12-03T11:22:07.806Z,21.8
2022-12-03T11:24:09.783Z,21
2022-12-03T11:26:17.088Z,22.3
2022-12-03T11:28:13.770Z,23
2022-12-03T11:30:15.766Z,19
2022-12-03T11:32:17.760Z,19.2
2022-12-03T11:34:19.814Z,22.3
2022-12-03T11:36:47.666Z,22.9
2022-12-03T11:38:26.903Z,25.6
2022-12-03T11:40:28.877Z,20.3
2022-12-03T11:42:30.875Z,22.4
2022-12-03T11:44:32.919Z,23.4
2022-12-03T11:48:36.841Z,23.8
2022-12-03T11:50:42.001Z,23.4
2022-12-03T11:52:44.005Z,22.4
2022-12-03T11:54:45.979Z,22
2022-12-03T12:01:54.517Z,24.1
2022-12-03T12:06:01.656Z,30
2022-12-03T12:08:03.681Z,31.8
2022-12-03T12:10:05.654Z,30.7
2022-12-03T12:12:07.636Z,28.9
2022-12-03T12:14:09.626Z,30.2
2022-12-03T12:16:11.688Z,28.2
2022-12-03T12:18:16.776Z,33.5
2022-12-03T12:20:18.779Z,34
2022-12-03T12:22:20.758Z,31.1
2022-12-03T12:24:22.725Z,31.5
2022-12-03T12:26:24.714Z,29.5
2022-12-03T12:28:26.705Z,32.1
2022-12-03T12:30:28.699Z,31.7
2022-12-03T12:32:33.817Z,30.2
2022-12-03T12:34:35.795Z,28.9
2022-12-03T12:36:37.779Z,30
2022-12-03T12:38:39.773Z,29.3
2022-12-03T12:40:41.945Z,33.1
2022-12-03T12:42:43.752Z,28.2
2022-12-03T12:44:45.714Z,29
2022-12-03T12:46:50.986Z,33.3
2022-12-03T12:48:57.944Z,28
2022-12-03T12:51:57.407Z,27.7
2022-12-03T12:53:59.327Z,26.7
2022-12-03T12:56:01.319Z,23.2
2022-12-03T12:58:03.303Z,28.3
2022-12-03T13:00:08.449Z,26.3
2022-12-03T13:02:10.502Z,22.4
2022-12-03T13:04:12.396Z,23.8
2022-12-03T13:06:14.413Z,20.6
2022-12-03T13:08:16.433Z,20.5
2022-12-03T13:10:18.358Z,22.3
2022-12-03T13:12:20.320Z,25.4
2022-12-03T13:14:25.461Z,22.3
2022-12-03T13:16:27.768Z,19.5
2022-12-03T13:18:29.427Z,23.2
2022-12-03T13:20:31.429Z,24.1
2022-12-03T13:22:33.372Z,21.6
2022-12-03T13:24:35.366Z,19.5
2022-12-03T13:26:39.279Z,19.1
2022-12-03T13:30:44.488Z,21.7
2022-12-03T13:32:46.452Z,20.3
2022-12-03T13:34:48.423Z,23.1
2022-12-03T13:36:57.117Z,22.1
2022-12-03T13:38:52.421Z,22.5
2022-12-03T13:40:54.399Z,22.7
2022-12-03T13:42:59.560Z,19.1
2022-12-03T13:45:01.500Z,20.3
2022-12-03T13:48:06.896Z,22
2022-12-03T13:50:08.924Z,22.9
2022-12-03T13:52:10.851Z,21.8
2022-12-03T13:54:15.867Z,25.7
2022-12-03T13:58:19.975Z,24.4
2022-12-03T14:04:25.930Z,25
2022-12-03T14:06:27.954Z,23.9
2022-12-03T14:12:37.050Z,30.1
2022-12-03T14:14:39.031Z,29.5
2022-12-03T14:16:41.105Z,30.2
2022-12-03T14:18:43.064Z,31.1
2022-12-03T14:20:45.037Z,28.8
2022-12-03T14:22:46.986Z,31
2022-12-03T14:24:52.133Z,32
2022-12-03T14:26:54.133Z,30.6
2022-12-03T14:28:56.081Z,33.4
2022-12-03T14:30:58.052Z,33.2
2022-12-03T14:33:00.039Z,34.1
2022-12-03T14:35:08.152Z,34
2022-12-03T14:39:09.261Z,35.6
2022-12-03T14:41:11.110Z,34.8
2022-12-03T14:43:13.097Z,33.3
2022-12-03T14:45:29.997Z,34.1
2022-12-03T14:47:31.831Z,38.1
2022-12-03T14:49:33.839Z,32.9
2022-12-03T14:51:38.941Z,36.5
2022-12-03T14:53:40.916Z,36.5
2022-12-03T14:55:42.904Z,32.8
2022-12-03T14:57:44.891Z,35.8
2022-12-03T14:59:46.902Z,32.9
2022-12-03T15:01:48.930Z,36.2
2022-12-03T15:03:50.827Z,32.8
2022-12-03T15:05:55.997Z,35.1
2022-12-03T15:07:58.109Z,33.6
2022-12-03T15:09:59.906Z,30.2
2022-12-03T15:12:03.416Z,32.3
2022-12-03T15:14:05.344Z,31
2022-12-03T15:16:07.327Z,34.1
2022-12-03T15:18:09.286Z,34.3
2022-12-03T15:20:14.448Z,36.3
2022-12-03T15:22:16.389Z,38
2022-12-03T15:24:18.316Z,36.5
2022-12-03T15:26:20.322Z,32.2
2022-12-03T15:28:22.298Z,32
2022-12-03T15:30:24.240Z,32.5
2022-12-03T15:32:26.204Z,30.5
2022-12-03T15:34:31.337Z,37.4
2022-12-03T15:36:33.305Z,35
2022-12-03T15:38:35.277Z,31.5
2022-12-03T15:39:37.859Z,33.8
2022-12-03T15:41:39.813Z,33.5
2022-12-03T15:43:41.792Z,32.2
2022-12-03T15:45:43.818Z,33.8
2022-12-03T16:04:07.815Z,29.4
2022-12-03T16:08:11.789Z,35
2022-12-03T16:10:13.721Z,32.6
2022-12-03T16:12:15.684Z,39.7
2022-12-03T16:16:22.859Z,32.1
2022-12-03T16:18:24.768Z,32.8
2022-12-03T16:20:26.728Z,29.3
2022-12-03T16:22:28.711Z,32.2
2022-12-03T16:24:30.699Z,31.8
2022-12-03T16:30:39.884Z,29.9
2022-12-03T16:32:41.758Z,34.7
2022-12-03T16:34:43.740Z,28.3
2022-12-03T16:35:46.289Z,36.3
2022-12-03T16:37:48.283Z,30.8
2022-12-03T16:39:50.234Z,29.8
2022-12-03T16:41:52.207Z,31
2022-12-03T16:43:57.329Z,35.3
2022-12-03T16:48:01.288Z,32.5
2022-12-03T16:50:03.271Z,34.8
2022-12-03T16:52:05.219Z,36.6
2022-12-03T16:54:07.184Z,34.2
2022-12-03T16:56:09.164Z,30.2
2022-12-03T16:58:14.310Z,35.6
2022-12-03T17:00:16.300Z,33
2022-12-03T17:02:18.276Z,35.9
2022-12-03T17:04:20.220Z,33.9
2022-12-03T17:06:22.210Z,34.5
2022-12-03T17:08:24.154Z,34.6
2022-12-03T17:13:00.675Z,34
2022-12-03T17:20:39.139Z,31.6
2022-12-03T17:22:41.120Z,30.7
2022-12-03T17:24:43.107Z,27.6
2022-12-03T17:26:49.245Z,36.7
2022-12-03T17:28:51.207Z,33.4
2022-12-03T17:30:53.266Z,31.8
2022-12-03T17:31:55.804Z,41.9
2022-12-03T17:33:57.717Z,31.2
2022-12-03T17:35:59.694Z,28.5
2022-12-03T17:38:01.685Z,33.2
2022-12-03T17:40:06.787Z,31.4
2022-12-03T17:42:08.769Z,29.2
2022-12-03T17:44:12.965Z,31.6
2022-12-03T17:46:12.804Z,31.8
2022-12-03T17:48:14.730Z,33.7
2022-12-03T17:50:16.724Z,29.9
2022-12-03T17:52:18.666Z,29.2
2022-12-03T17:54:23.804Z,31.9
2022-12-03T17:56:25.793Z,31.3
2022-12-03T17:58:27.758Z,32.6
2022-12-03T18:00:29.740Z,32.6
2022-12-03T18:02:31.700Z,31.7
2022-12-03T18:04:33.679Z,33.2
2022-12-03T18:06:35.660Z,31.9
2022-12-03T18:10:42.783Z,32
2022-12-03T18:12:44.719Z,30.8
2022-12-03T18:16:48.671Z,26.1
2022-12-03T18:22:57.790Z,32.8
2022-12-03T18:24:59.727Z,28.9
2022-12-03T18:27:01.689Z,34.5
2022-12-03T18:33:28.465Z,33.5
2022-12-03T18:35:33.607Z,34
2022-12-03T18:41:39.498Z,31.9
2022-12-03T18:45:43.418Z,30.9
2022-12-03T18:47:45.478Z,30.5
2022-12-03T18:51:59.085Z,27.5
2022-12-03T18:53:54.356Z,27.3
2022-12-03T18:55:56.340Z,28.9
2022-12-03T18:57:58.305Z,32
2022-12-03T19:00:00.296Z,30.4
2022-12-03T19:02:02.310Z,30.2
2022-12-03T19:04:07.380Z,31.6
2022-12-03T19:06:11.851Z,30.2
2022-12-03T19:08:11.422Z,32.9
2022-12-03T19:10:13.280Z,29.9
2022-12-03T19:12:15.269Z,31.6
2022-12-03T19:14:17.249Z,33.4
2022-12-03T19:16:19.330Z,30.4
2022-12-03T19:18:24.320Z,30.5
2022-12-03T19:20:26.321Z,31.2
2022-12-03T19:22:28.290Z,32.1
2022-12-03T19:23:30.872Z,33
2022-12-03T19:25:32.826Z,29.3
2022-12-03T19:27:34.793Z,31.9
2022-12-03T19:29:36.782Z,28.3
2022-12-03T19:31:42.075Z,27.7
2022-12-03T19:33:43.908Z,32.8
2022-12-03T19:35:45.828Z,31.2
2022-12-03T19:37:47.877Z,31
2022-12-03T19:39:49.775Z,30.5
2022-12-03T19:41:51.821Z,30.2
2022-12-03T19:43:53.794Z,30.6
2022-12-03T19:45:59.012Z,31.5
2022-12-03T19:50:02.858Z,32.1
2022-12-03T19:56:08.783Z,29
2022-12-03T19:58:10.756Z,34.2
2022-12-03T20:00:15.900Z,32.5
2022-12-03T20:02:18.070Z,32
2022-12-03T20:04:19.809Z,33
2022-12-03T20:06:21.819Z,31.2
2022-12-03T20:08:23.801Z,28.2
2022-12-03T20:10:25.804Z,32.7
2022-12-03T20:12:27.754Z,30.9
2022-12-03T20:14:32.854Z,31.9
2022-12-03T20:16:34.909Z,33.4
2022-12-03T20:18:36.805Z,30.9
2022-12-03T20:19:39.386Z,33.5
2022-12-03T20:21:41.321Z,32.5
2022-12-03T20:23:43.286Z,29.5
2022-12-03T20:25:45.285Z,30.8
2022-12-03T20:27:50.364Z,33.1
2022-12-03T20:29:52.882Z,34.1
2022-12-03T20:31:54.422Z,32.9
2022-12-03T20:33:56.317Z,33.8
2022-12-03T20:35:58.283Z,31.2
2022-12-03T20:38:00.241Z,29
2022-12-03T20:40:02.215Z,29.9
2022-12-03T20:42:07.338Z,30.6
2022-12-03T20:44:09.290Z,33.4
2022-12-03T20:46:11.323Z,29.9
2022-12-03T20:48:13.220Z,35.9
2022-12-03T20:50:15.197Z,43.1
2022-12-03T20:54:19.132Z,34.1
2022-12-03T21:00:28.188Z,32.2
2022-12-03T21:12:44.649Z,34.3
2022-12-03T21:14:46.627Z,36
2022-12-03T21:15:49.191Z,34.6
2022-12-03T21:17:51.211Z,32.6
2022-12-03T21:19:53.545Z,33.3
2022-12-03T21:21:55.091Z,34.4
2022-12-03T21:24:00.234Z,34.5
2022-12-03T21:28:04.124Z,35.9
2022-12-03T21:30:06.098Z,31.7
2022-12-03T21:32:08.033Z,36.9
2022-12-03T21:34:10.013Z,35
2022-12-03T21:36:12.004Z,37.2
2022-12-03T21:40:19.068Z,34.2
2022-12-03T21:42:36.540Z,37.6
2022-12-03T21:44:22.983Z,36.8
2022-12-03T21:47:12.463Z,33.1
2022-12-03T21:48:26.893Z,33
2022-12-03T21:50:28.846Z,36
2022-12-03T21:52:33.958Z,36.3
2022-12-03T21:54:35.938Z,32.1
2022-12-03T21:56:37.931Z,35.3
2022-12-03T21:58:39.882Z,32.1
2022-12-03T22:00:41.824Z,37.3
2022-12-03T22:02:43.849Z,36.2
2022-12-03T22:04:45.721Z,35.6
2022-12-03T22:06:50.848Z,34.3
2022-12-03T22:08:52.787Z,37.9
2022-12-03T22:10:54.810Z,38.4
2022-12-03T22:13:17.739Z,37
2022-12-03T22:15:19.834Z,34
2022-12-03T22:17:21.694Z,38.9
2022-12-03T22:19:26.791Z,36.4
2022-12-03T22:21:28.744Z,39
2022-12-03T22:23:30.685Z,37.2
2022-12-03T22:25:32.675Z,36.3
2022-12-03T22:27:34.672Z,38.5
2022-12-03T22:29:36.611Z,36.4
2022-12-03T22:31:38.581Z,36.6
2022-12-03T22:33:43.693Z,39.9
2022-12-03T22:35:45.663Z,40.6
2022-12-03T22:37:47.632Z,34.7
2022-12-03T22:39:49.576Z,37.8
2022-12-03T22:48:00.579Z,36.4
2022-12-03T22:50:02.525Z,38.5
2022-12-03T22:52:04.507Z,39.7
2022-12-03T22:54:06.463Z,35.3
2022-12-03T22:56:08.458Z,38.3
2022-12-03T22:58:10.415Z,33.8
2022-12-03T23:00:12.402Z,38.2
2022-12-03T23:02:17.548Z,37.5
2022-12-03T23:04:19.536Z,38.7
2022-12-03T23:06:21.436Z,35
2022-12-03T23:07:23.993Z,37.9
2022-12-03T23:09:26.031Z,40.1
2022-12-03T23:11:27.939Z,37
2022-12-03T23:13:29.879Z,38.1
2022-12-03T23:15:35.057Z,37.9
2022-12-03T23:17:36.984Z,39.1
2022-12-03T23:19:38.991Z,38
2022-12-03T23:21:40.914Z,36.3
2022-12-03T23:23:42.887Z,40
2022-12-03T23:25:44.873Z,39.1
2022-12-03T23:29:52.095Z,41.3
2022-12-03T23:31:53.902Z,41.9
2022-12-03T23:33:55.990Z,37.5
2022-12-03T23:35:57.839Z,40
2022-12-03T23:37:59.815Z,38.7
2022-12-03T23:40:01.765Z,36.6
2022-12-03T23:42:03.710Z,37.4
2022-12-03T23:44:08.845Z,33.8
2022-12-03T23:46:10.902Z,42.2
2022-12-03T23:48:12.767Z,40.2
2022-12-03T23:50:14.717Z,42.7
2022-12-03T23:52:16.686Z,38.7
2022-12-03T23:54:18.662Z,40
2022-12-03T23:56:20.619Z,39.9
2022-12-03T23:58:25.740Z,39
